• Join FlightAware (Why Join?)
  • Login
  • US Flag 
12:22PM EDT


 

Airport Tracker/Info


-or-


 

Live Flight TrackerFlight Track Log ✈ N200PZ ✈ 23-Jul-2014 ✈ KRST - KSTP

Flight Track Log - Related Links

Times and Time Zones

All times are in EDT time to prevent confusion due to time zone crossing. See the N200PZ flight status page for this flight to view local times or setup timezone preferences in your user account.

Time Position Orientation Groundspeed Altitude Reporting Facility
EDT Latitude Longitude Course Direction KTS MPH feet Rate Location/Type
09:32PM 44.0439 -92.6017 336° Northwest 230 265 6,100  Level Minneapolis Center
09:33PM 44.1103 -92.6286 344° North 233 268 6,000 -60 Descending Minneapolis Center
09:34PM 44.1697 -92.6561 342° North 230 265 6,000  Level Minneapolis Center
09:35PM 44.2319 -92.6917 338° Northwest 229 264 6,000  Level Minneapolis Center
09:36PM 44.2164 -92.6549 339° North  Level FlightAware Approximate
09:36PM 44.2903 -92.7231 339° North 228 262 6,000  Level Minneapolis Center
09:37PM 44.2688 -92.6825 339° North  Level FlightAware Approximate
09:37PM 44.3503 -92.7503 342° North 228 262 6,000  Level Minneapolis Center
09:39PM 44.4097 -92.7819 339° North 229 264 5,500 -720 Descending Minneapolis Center
09:40PM 44.4686 -92.8111 341° North 228 262 4,600 -960 Descending Minneapolis Center
09:41PM 44.5261 -92.8350 344° North 221 254 3,600 -1,020 Descending Minneapolis Center
09:42PM 44.5967 -92.8611 345° North 219 252 2,600 -660 Descending Minneapolis Center
09:43PM 44.6514 -92.8764 349° North 207 238 2,300 -60 Descending Minneapolis Center
09:44PM 44.7014 -92.8936 346° North 191 220 2,500 60 Climbing Minneapolis Center
09:45PM 44.7519 -92.9111 346° North 190 219 2,500  Level Minneapolis Center
09:46PM 44.7994 -92.9344 341° North 188 216 2,500 -120 Level Minneapolis Center
09:47PM 44.8506 -92.9831 326° Northwest 185 213 2,300 -360 Descending Minneapolis Center
09:48PM 44.8806 -93.0111 326° Northwest 133 153 1,800 -540 Descending Minneapolis Center
09:49PM 44.9089 -93.0375 327° Northwest 126 145 1,200 -360 Descending Minneapolis Center
09:50PM 44.9364 -93.0636 326° Northwest 126 145 1,100 -120 Descending Minneapolis Center
09:52PM 44.9333 -93.0500 North  Level FlightAware Approximate